createdAt,value
2023-07-03T00:00:19.170Z,870.67
2023-07-03T00:02:48.573Z,791.08
2023-07-03T00:05:16.349Z,457.52
2023-07-03T00:07:44.538Z,490.45
2023-07-03T00:10:13.182Z,457.73
2023-07-03T00:12:42.164Z,445.63
2023-07-03T00:15:10.164Z,453.67
2023-07-03T00:17:40.305Z,408.90
2023-07-03T00:20:12.673Z,395.83
2023-07-03T00:22:39.965Z,454.88
2023-07-03T00:25:08.052Z,398.10
2023-07-03T00:27:35.353Z,425.40
2023-07-03T00:30:02.770Z,389.58
2023-07-03T00:32:30.190Z,394.42
2023-07-03T00:34:57.468Z,394.83
2023-07-03T00:37:24.864Z,445.98
2023-07-03T00:39:52.134Z,477.15
2023-07-03T00:42:19.380Z,450.00
2023-07-03T00:44:46.804Z,429.88
2023-07-03T00:47:14.126Z,446.25
2023-07-03T00:49:41.358Z,503.05
2023-07-03T00:52:09.420Z,478.25
2023-07-03T00:54:36.698Z,496.05
2023-07-03T00:57:04.334Z,393.27
2023-07-03T00:59:31.772Z,431.42
2023-07-03T01:02:20.194Z,462.13
2023-07-03T01:05:05.332Z,473.27
2023-07-03T01:07:34.929Z,459.25
2023-07-03T01:10:05.910Z,451.83
2023-07-03T01:12:36.049Z,417.30
2023-07-03T01:15:05.772Z,432.17
2023-07-03T01:17:33.865Z,451.60
2023-07-03T01:20:02.188Z,511.17
2023-07-03T01:22:29.575Z,469.20
2023-07-03T01:25:00.172Z,477.88
2023-07-03T01:27:32.740Z,480.48
2023-07-03T01:30:00.601Z,426.38
2023-07-03T01:32:29.846Z,504.55
2023-07-03T01:34:58.079Z,488.90
2023-07-03T01:37:27.623Z,511.92
2023-07-03T01:39:55.845Z,489.02
2023-07-03T01:42:24.056Z,534.58
2023-07-03T01:44:51.347Z,551.47
2023-07-03T01:47:19.020Z,557.90
2023-07-03T01:49:46.402Z,574.38
2023-07-03T01:52:13.703Z,595.92
2023-07-03T01:54:45.857Z,636.00
2023-07-03T01:57:14.947Z,573.58
2023-07-03T01:59:43.018Z,668.35
2023-07-03T02:02:24.576Z,701.30
2023-07-03T02:05:00.683Z,831.58
2023-07-03T02:07:31.130Z,596.90
2023-07-03T02:10:01.712Z,547.50
2023-07-03T02:12:29.041Z,523.83
2023-07-03T02:14:56.717Z,604.67
2023-07-03T02:17:24.061Z,612.72
2023-07-03T02:19:51.819Z,561.13
2023-07-03T02:22:19.111Z,575.33
2023-07-03T02:24:46.352Z,599.20
2023-07-03T02:27:13.598Z,597.25
2023-07-03T02:29:41.055Z,578.92
2023-07-03T02:32:13.414Z,735.53
2023-07-03T02:34:40.812Z,799.47
2023-07-03T02:37:11.137Z,586.63
2023-07-03T02:39:38.454Z,470.60
2023-07-03T02:42:05.943Z,476.65
2023-07-03T02:44:42.157Z,430.08
2023-07-03T02:47:09.485Z,387.42
2023-07-03T02:49:36.882Z,420.60
2023-07-03T02:52:04.334Z,366.20
2023-07-03T02:54:31.640Z,430.55
2023-07-03T02:56:58.899Z,464.83
2023-07-03T02:59:26.279Z,455.67
2023-07-03T03:01:54.382Z,404.50
2023-07-03T03:04:22.001Z,440.02
2023-07-03T03:06:50.707Z,380.67
2023-07-03T03:09:19.299Z,384.67
2023-07-03T03:11:46.542Z,379.40
2023-07-03T03:14:14.396Z,395.65
2023-07-03T03:16:41.886Z,361.60
2023-07-03T03:19:09.239Z,297.27
2023-07-03T03:21:36.533Z,330.38
2023-07-03T03:24:04.430Z,319.08
2023-07-03T03:26:32.334Z,348.45
2023-07-03T03:28:59.678Z,311.65
2023-07-03T03:31:27.119Z,339.10
2023-07-03T03:33:54.548Z,273.63
2023-07-03T03:36:21.855Z,263.33
2023-07-03T03:38:49.339Z,261.80
2023-07-03T03:41:16.632Z,216.38
2023-07-03T03:43:43.993Z,235.43
2023-07-03T03:46:13.303Z,232.07
2023-07-03T03:48:40.680Z,275.83
2023-07-03T03:51:08.073Z,300.90
2023-07-03T03:53:35.342Z,238.63
2023-07-03T03:56:02.662Z,261.38
2023-07-03T03:58:30.275Z,299.02
2023-07-03T04:00:57.492Z,288.15
2023-07-03T04:03:24.983Z,312.08
2023-07-03T04:05:52.609Z,324.88
2023-07-03T04:08:20.086Z,341.65
2023-07-03T04:10:47.383Z,339.60
2023-07-03T04:13:14.857Z,343.15
2023-07-03T04:15:56.083Z,336.23
2023-07-03T04:18:24.525Z,352.45
2023-07-03T04:20:52.445Z,372.67
2023-07-03T04:23:19.666Z,351.25
2023-07-03T04:25:47.366Z,354.73
2023-07-03T04:28:15.023Z,354.30
2023-07-03T04:30:42.523Z,354.33
2023-07-03T04:33:10.028Z,333.33
2023-07-03T04:35:40.476Z,310.52
2023-07-03T04:38:08.216Z,341.70
2023-07-03T04:40:36.013Z,330.05
2023-07-03T04:43:04.546Z,283.80
2023-07-03T04:45:32.696Z,330.25
2023-07-03T04:48:00.090Z,282.85
2023-07-03T04:50:27.311Z,292.38
2023-07-03T04:52:57.427Z,303.13
2023-07-03T04:55:26.278Z,336.50
2023-07-03T04:57:53.426Z,298.05
2023-07-03T05:00:21.024Z,328.52
2023-07-03T05:02:49.503Z,284.70
2023-07-03T05:05:17.437Z,298.45
2023-07-03T05:07:45.775Z,325.15
2023-07-03T05:10:14.245Z,286.98
2023-07-03T05:12:41.396Z,271.80
2023-07-03T05:15:09.559Z,281.85
2023-07-03T05:17:39.836Z,277.25
2023-07-03T05:20:10.131Z,330.70
2023-07-03T05:22:41.517Z,298.38
2023-07-03T05:25:15.527Z,266.52
2023-07-03T05:27:43.037Z,304.23
2023-07-03T05:30:13.620Z,354.20
2023-07-03T05:32:41.111Z,313.80
2023-07-03T05:35:09.069Z,333.60
2023-07-03T05:37:39.825Z,348.88
2023-07-03T05:40:08.420Z,322.65
2023-07-03T05:42:36.357Z,317.10
2023-07-03T05:45:04.197Z,330.70
2023-07-03T05:47:31.722Z,324.17
2023-07-03T05:49:59.310Z,337.40
2023-07-03T05:52:26.681Z,377.70
2023-07-03T05:54:54.365Z,355.60
2023-07-03T05:57:34.952Z,348.88
2023-07-03T06:00:02.346Z,377.75
2023-07-03T06:02:32.742Z,351.50
2023-07-03T06:05:00.193Z,291.48
2023-07-03T06:07:33.097Z,324.02
2023-07-03T06:12:30.746Z,256.38
2023-07-03T06:15:02.314Z,899.70
2023-07-03T06:17:30.859Z,874.25
2023-07-03T06:19:58.237Z,581.90
2023-07-03T06:22:28.155Z,474.58
2023-07-03T06:25:17.622Z,402.00
2023-07-03T06:27:56.635Z,402.90
2023-07-03T06:30:26.359Z,430.52
2023-07-03T06:32:53.716Z,398.65
2023-07-03T06:35:34.842Z,420.10
2023-07-03T06:38:04.449Z,451.60
2023-07-03T06:40:39.972Z,511.08
2023-07-03T06:43:10.221Z,406.35
2023-07-03T06:45:49.603Z,390.77
2023-07-03T06:48:17.309Z,451.55
2023-07-03T06:50:46.089Z,345.70
2023-07-03T06:53:13.938Z,487.33
2023-07-03T06:55:41.367Z,458.50
2023-07-03T06:58:08.712Z,483.38
2023-07-03T07:00:37.512Z,488.40
2023-07-03T07:03:05.095Z,280.23
2023-07-03T07:05:32.660Z,334.00
2023-07-03T07:07:59.934Z,314.10
2023-07-03T07:10:27.581Z,318.88
2023-07-03T07:12:55.031Z,256.02
2023-07-03T07:15:22.549Z,312.83
2023-07-03T07:17:52.156Z,299.10
2023-07-03T07:20:19.996Z,437.95
2023-07-03T07:22:47.390Z,397.45
2023-07-03T07:25:14.962Z,419.60
2023-07-03T07:27:42.389Z,352.45
2023-07-03T07:30:10.215Z,295.17
2023-07-03T07:32:37.848Z,257.10
2023-07-03T07:35:07.044Z,217.23
2023-07-03T07:37:34.444Z,259.92
2023-07-03T07:40:02.157Z,225.70
2023-07-03T07:42:30.581Z,137.18
2023-07-03T07:45:02.387Z,176.05
2023-07-03T07:47:30.572Z,136.23
2023-07-03T07:49:59.393Z,165.80
2023-07-03T07:52:26.952Z,158.77
2023-07-03T07:54:58.133Z,126.35
2023-07-03T07:57:28.334Z,155.30
2023-07-03T07:59:55.605Z,159.60
2023-07-03T08:02:23.510Z,151.15
2023-07-03T08:04:51.426Z,137.75
2023-07-03T08:07:18.947Z,144.45
2023-07-03T08:09:48.396Z,158.40
2023-07-03T08:12:19.728Z,168.60
2023-07-03T08:14:47.228Z,162.13
2023-07-03T08:17:14.987Z,162.75
2023-07-03T08:19:42.471Z,152.35
2023-07-03T08:22:12.229Z,148.27
2023-07-03T08:24:51.664Z,183.15
2023-07-03T08:27:23.406Z,138.95
2023-07-03T08:29:58.804Z,133.13
2023-07-03T08:32:26.333Z,171.18
2023-07-03T08:37:24.342Z,157.80
2023-07-03T08:39:54.672Z,119.95
2023-07-03T08:42:50.940Z,140.57
2023-07-03T08:45:26.702Z,129.50
2023-07-03T08:47:56.159Z,109.10
2023-07-03T08:50:36.573Z,130.90
2023-07-03T08:53:05.983Z,103.40
2023-07-03T08:55:38.277Z,129.23
2023-07-03T08:58:05.764Z,128.63
2023-07-03T09:00:37.962Z,110.30
2023-07-03T09:03:23.305Z,119.28
2023-07-03T09:06:23.103Z,103.70
2023-07-03T09:08:55.770Z,114.93
2023-07-03T09:13:54.590Z,149.88
2023-07-03T09:16:23.749Z,116.22
2023-07-03T09:18:53.462Z,130.75
2023-07-03T09:21:23.942Z,115.30
2023-07-03T09:24:09.175Z,110.72
2023-07-03T09:27:05.782Z,115.45
2023-07-03T09:29:34.049Z,139.48
2023-07-03T09:32:01.519Z,102.50
2023-07-03T09:34:34.059Z,132.70
2023-07-03T09:37:05.410Z,125.85
2023-07-03T09:39:33.152Z,88.47
2023-07-03T09:42:15.794Z,113.63
2023-07-03T09:44:55.208Z,84.43
2023-07-03T09:47:32.391Z,99.80
2023-07-03T09:50:10.031Z,146.30
2023-07-03T09:52:59.459Z,148.40
2023-07-03T09:55:37.264Z,123.82
2023-07-03T09:58:12.682Z,122.25
2023-07-03T10:00:50.460Z,120.35
2023-07-03T10:08:30.877Z,85.03
2023-07-03T10:13:43.824Z,155.40
2023-07-03T10:16:12.470Z,118.57
2023-07-03T10:18:40.761Z,94.93
2023-07-03T10:21:12.520Z,119.78
2023-07-03T10:23:52.981Z,122.27
2023-07-03T10:26:23.986Z,81.85
2023-07-03T10:29:20.821Z,83.93
2023-07-03T10:32:17.199Z,89.20
2023-07-03T10:34:55.208Z,99.50
2023-07-03T10:37:34.571Z,116.07
2023-07-03T10:40:16.650Z,89.53
2023-07-03T10:42:47.263Z,107.35
2023-07-03T10:45:18.273Z,82.93
2023-07-03T10:47:52.314Z,103.35
2023-07-03T10:50:25.336Z,71.82
2023-07-03T10:53:16.033Z,92.63
2023-07-03T10:55:53.089Z,90.03
2023-07-03T10:58:37.066Z,103.43
2023-07-03T11:01:07.838Z,60.53
2023-07-03T11:03:41.285Z,69.00
2023-07-03T11:06:31.265Z,101.10
2023-07-03T11:09:17.568Z,67.07
2023-07-03T11:28:31.173Z,82.53
2023-07-03T11:31:00.645Z,66.03
2023-07-03T11:44:47.053Z,70.22
2023-07-03T11:47:16.146Z,50.22
2023-07-03T11:50:00.581Z,86.47
2023-07-03T11:52:29.803Z,54.65
2023-07-03T11:55:03.388Z,54.20
2023-07-03T11:57:36.835Z,52.75
2023-07-03T12:00:19.742Z,24.23
2023-07-03T12:02:54.700Z,29.33
2023-07-03T12:05:40.991Z,44.83
2023-07-03T12:08:12.256Z,63.15
2023-07-03T12:10:41.455Z,39.47
2023-07-03T12:14:02.964Z,50.90
2023-07-03T12:16:32.303Z,30.15
2023-07-03T12:19:06.773Z,38.63
2023-07-03T12:22:31.127Z,42.60
2023-07-03T12:25:08.767Z,55.80
2023-07-03T12:27:40.268Z,54.55
2023-07-03T12:30:12.878Z,63.42
2023-07-03T12:35:21.332Z,28.58
2023-07-03T12:37:51.780Z,32.58
2023-07-03T12:40:22.079Z,63.28
2023-07-03T12:42:54.313Z,108.28
2023-07-03T12:48:26.268Z,103.20
2023-07-03T12:51:08.126Z,85.63
2023-07-03T12:53:38.953Z,128.23
2023-07-03T12:56:10.969Z,158.10
2023-07-03T12:58:38.820Z,254.45
2023-07-03T13:01:07.775Z,354.17
2023-07-03T13:03:40.095Z,400.75
2023-07-03T13:08:43.096Z,975.47
2023-07-03T13:11:23.567Z,587.45
2023-07-03T13:14:10.217Z,954.33
2023-07-03T13:16:37.848Z,534.63
2023-07-03T13:19:06.770Z,549.50
2023-07-03T13:21:39.545Z,696.67
2023-07-03T13:24:18.396Z,301.60
2023-07-03T13:26:52.398Z,470.63
2023-07-03T13:29:27.308Z,284.45
2023-07-03T13:32:05.621Z,510.23
2023-07-03T13:37:14.276Z,453.38
2023-07-03T13:39:49.489Z,410.00
2023-07-03T13:42:23.293Z,454.13
2023-07-03T13:44:50.776Z,488.50
2023-07-03T13:47:29.223Z,404.00
2023-07-03T13:49:57.482Z,459.67
2023-07-03T13:52:28.852Z,380.63
2023-07-03T13:54:56.361Z,417.48
2023-07-03T13:57:23.942Z,424.80
2023-07-03T13:59:51.329Z,467.40
2023-07-03T14:02:28.968Z,344.98
2023-07-03T14:05:02.329Z,316.58
2023-07-03T14:07:41.332Z,363.83
2023-07-03T14:10:10.618Z,278.05
2023-07-03T14:12:42.415Z,270.85
2023-07-03T14:15:17.414Z,298.55
2023-07-03T14:17:50.574Z,322.42
2023-07-03T14:20:17.963Z,338.20
2023-07-03T14:22:45.251Z,284.13
2023-07-03T14:25:14.459Z,263.83
2023-07-03T14:27:42.267Z,290.80
2023-07-03T14:30:10.616Z,288.30
2023-07-03T14:32:51.523Z,278.73
2023-07-03T14:35:23.281Z,278.77
2023-07-03T14:37:50.512Z,238.70
2023-07-03T14:40:17.859Z,249.93
2023-07-03T14:42:45.546Z,286.88
2023-07-03T14:45:12.989Z,306.58
2023-07-03T14:47:41.080Z,261.35
2023-07-03T14:50:08.878Z,280.77
2023-07-03T14:52:43.473Z,253.77
2023-07-03T14:55:11.703Z,224.85
2023-07-03T14:57:39.070Z,218.23
2023-07-03T15:00:08.361Z,259.63
2023-07-03T15:02:37.837Z,212.43
2023-07-03T15:05:12.865Z,244.20
2023-07-03T15:07:40.272Z,304.90
2023-07-03T15:10:07.860Z,310.52
2023-07-03T15:12:35.129Z,314.70
2023-07-03T15:15:02.517Z,307.70
2023-07-03T15:17:29.863Z,321.23
2023-07-03T15:19:57.383Z,324.80
2023-07-03T15:22:24.804Z,324.58
2023-07-03T15:24:52.114Z,322.92
2023-07-03T15:27:19.707Z,354.92
2023-07-03T15:29:48.047Z,381.52
2023-07-03T15:32:15.333Z,323.83
2023-07-03T15:34:42.875Z,312.70
2023-07-03T15:37:10.189Z,388.55
2023-07-03T15:39:37.480Z,370.08
2023-07-03T15:42:04.874Z,315.17
2023-07-03T15:44:32.120Z,325.70
2023-07-03T15:46:59.542Z,327.27
2023-07-03T15:49:28.721Z,312.35
2023-07-03T15:51:57.717Z,333.88
2023-07-03T15:54:25.327Z,322.73
2023-07-03T15:56:53.334Z,299.65
2023-07-03T15:59:20.684Z,375.02
2023-07-03T16:01:50.780Z,320.50
2023-07-03T16:04:18.112Z,345.65
2023-07-03T16:06:45.672Z,282.60
2023-07-03T16:09:16.451Z,285.80
2023-07-03T16:11:43.778Z,355.42
2023-07-03T16:14:11.044Z,306.20
2023-07-03T16:16:38.421Z,332.85
2023-07-03T16:19:11.072Z,296.52
2023-07-03T16:21:38.477Z,296.17
2023-07-03T16:24:08.205Z,333.17
2023-07-03T16:26:35.636Z,273.42
2023-07-03T16:29:07.878Z,257.15
2023-07-03T16:31:35.428Z,242.88
2023-07-03T16:34:03.756Z,279.20
2023-07-03T16:36:31.924Z,279.70
2023-07-03T16:39:00.689Z,259.38
2023-07-03T16:41:29.564Z,304.80
2023-07-03T16:43:57.922Z,287.83
2023-07-03T16:46:26.298Z,312.83
2023-07-03T16:48:54.590Z,277.02
2023-07-03T16:54:50.381Z,295.50
2023-07-03T16:57:19.087Z,300.73
2023-07-03T16:59:46.613Z,303.30
2023-07-03T17:02:14.037Z,309.15
2023-07-03T17:04:41.620Z,246.00
2023-07-03T17:07:08.986Z,300.33
2023-07-03T17:09:36.296Z,290.80
2023-07-03T17:12:04.012Z,265.15
2023-07-03T17:14:32.561Z,282.83
2023-07-03T17:16:59.951Z,278.35
2023-07-03T17:19:27.357Z,291.60
2023-07-03T17:21:54.699Z,298.20
2023-07-03T17:24:21.919Z,272.48
2023-07-03T17:26:49.268Z,260.17
2023-07-03T17:29:16.687Z,309.55
2023-07-03T17:31:44.123Z,258.70
2023-07-03T17:34:11.541Z,280.73
2023-07-03T17:36:38.878Z,276.45
2023-07-03T17:39:06.152Z,214.00
2023-07-03T17:41:33.462Z,234.55
2023-07-03T17:44:00.917Z,304.58
2023-07-03T17:46:28.244Z,207.30
2023-07-03T17:48:55.693Z,232.57
2023-07-03T17:51:26.434Z,275.58
2023-07-03T17:53:54.094Z,234.90
2023-07-03T17:56:21.464Z,226.40
2023-07-03T17:58:49.338Z,234.23
2023-07-03T18:01:17.661Z,238.15
2023-07-03T18:03:45.091Z,263.13
2023-07-03T18:06:12.464Z,298.67
2023-07-03T18:08:39.767Z,321.08
2023-07-03T18:11:07.351Z,228.50
2023-07-03T18:13:34.962Z,311.77
2023-07-03T18:16:02.602Z,300.83
2023-07-03T18:18:30.159Z,264.25
2023-07-03T18:20:57.461Z,291.98
2023-07-03T18:23:24.808Z,291.08
2023-07-03T18:25:52.300Z,245.43
2023-07-03T18:28:19.870Z,241.88
2023-07-03T18:30:47.200Z,260.88
2023-07-03T18:33:14.550Z,251.52
2023-07-03T18:35:41.806Z,230.60
2023-07-03T18:38:09.119Z,235.73
2023-07-03T18:40:36.558Z,231.25
2023-07-03T18:43:03.870Z,227.10
2023-07-03T18:45:31.141Z,292.10
2023-07-03T18:47:58.513Z,241.98
2023-07-03T18:50:25.840Z,294.05
2023-07-03T18:52:53.188Z,238.57
2023-07-03T18:55:22.441Z,272.92
2023-07-03T18:57:49.904Z,277.83
2023-07-03T19:00:17.529Z,287.88
2023-07-03T19:02:48.634Z,269.58
2023-07-03T19:05:16.248Z,286.45
2023-07-03T19:07:45.870Z,240.00
2023-07-03T19:12:43.899Z,265.08
2023-07-03T19:15:11.284Z,325.23
2023-07-03T19:17:38.715Z,275.15
2023-07-03T19:20:07.525Z,298.48
2023-07-03T19:22:34.882Z,285.25
2023-07-03T19:25:02.192Z,283.30
2023-07-03T19:27:29.614Z,302.17
2023-07-03T19:29:57.026Z,341.85
2023-07-03T19:32:25.180Z,276.58
2023-07-03T19:34:53.149Z,268.92
2023-07-03T19:37:20.622Z,300.27
2023-07-03T19:39:48.069Z,274.15
2023-07-03T19:42:15.565Z,252.05
2023-07-03T19:44:43.080Z,244.98
2023-07-03T19:47:10.478Z,245.23
2023-07-03T19:49:37.822Z,264.15
2023-07-03T19:52:05.787Z,274.83
2023-07-03T19:54:33.094Z,263.42
2023-07-03T19:57:00.911Z,327.42
2023-07-03T19:59:30.003Z,306.63
2023-07-03T20:01:57.492Z,316.90
2023-07-03T20:04:25.493Z,300.55
2023-07-03T20:06:53.017Z,295.40
2023-07-03T20:09:20.344Z,300.08
2023-07-03T20:11:47.980Z,246.40
2023-07-03T20:14:15.357Z,264.08
2023-07-03T20:16:44.062Z,256.17
2023-07-03T20:19:12.316Z,332.30
2023-07-03T20:21:39.726Z,333.55
2023-07-03T20:24:07.273Z,314.13
2023-07-03T20:26:34.805Z,296.33
2023-07-03T20:29:03.055Z,359.13
2023-07-03T20:31:31.109Z,311.48
2023-07-03T20:33:58.757Z,296.83
2023-07-03T20:36:27.971Z,269.35
2023-07-03T20:38:58.238Z,348.60
2023-07-03T20:41:25.869Z,300.67
2023-07-03T20:43:53.343Z,316.63
2023-07-03T20:46:22.509Z,306.45
2023-07-03T20:48:55.668Z,285.15
2023-07-03T20:51:24.010Z,318.48
2023-07-03T20:53:53.160Z,384.55
2023-07-03T20:56:24.538Z,359.35
2023-07-03T20:58:53.035Z,318.20
2023-07-03T21:01:27.811Z,314.33
2023-07-03T21:03:56.178Z,292.10
2023-07-03T21:06:25.074Z,336.42
2023-07-03T21:08:52.844Z,340.83
2023-07-03T21:11:21.540Z,351.27
2023-07-03T21:13:50.448Z,306.23
2023-07-03T21:16:19.424Z,371.80
2023-07-03T21:18:47.094Z,349.73
2023-07-03T21:21:14.592Z,327.42
2023-07-03T21:23:42.303Z,354.48
2023-07-03T21:26:12.611Z,363.35
2023-07-03T21:28:40.325Z,392.23
2023-07-03T21:31:08.224Z,353.27
2023-07-03T21:33:35.660Z,337.58
2023-07-03T21:36:23.693Z,366.63
2023-07-03T21:38:52.485Z,380.67
2023-07-03T21:41:20.230Z,330.55
2023-07-03T21:43:51.786Z,352.23
2023-07-03T21:46:19.989Z,291.90
2023-07-03T21:48:49.725Z,311.77
2023-07-03T21:51:18.657Z,338.67
2023-07-03T21:53:49.375Z,327.45
2023-07-03T21:56:17.916Z,369.08
2023-07-03T21:58:45.678Z,332.45
2023-07-03T22:01:20.090Z,372.70
2023-07-03T22:03:47.519Z,407.02
2023-07-03T22:06:14.926Z,393.23
2023-07-03T22:08:42.280Z,374.80
2023-07-03T22:11:09.661Z,416.92
2023-07-03T22:13:36.972Z,433.45
2023-07-03T22:16:04.323Z,375.83
2023-07-03T22:18:31.583Z,373.90
2023-07-03T22:20:58.888Z,398.83
2023-07-03T22:23:32.098Z,358.00
2023-07-03T22:26:00.879Z,392.20
2023-07-03T22:28:28.678Z,340.80
2023-07-03T22:30:56.055Z,339.65
2023-07-03T22:33:24.206Z,315.58
2023-07-03T22:35:53.535Z,411.63
2023-07-03T22:38:21.435Z,388.85
2023-07-03T22:40:52.442Z,390.90
2023-07-03T22:43:20.531Z,414.55
2023-07-03T22:45:48.478Z,382.73
2023-07-03T22:48:15.975Z,388.80
2023-07-03T22:50:43.990Z,398.90
2023-07-03T22:53:11.592Z,421.63
2023-07-03T22:55:41.118Z,404.25
2023-07-03T22:58:10.129Z,411.58
2023-07-03T23:00:40.773Z,400.17
2023-07-03T23:03:08.376Z,408.10
2023-07-03T23:05:40.493Z,444.23
2023-07-03T23:08:07.841Z,464.35
2023-07-03T23:10:35.083Z,469.00
2023-07-03T23:13:02.434Z,481.65
2023-07-03T23:15:29.776Z,466.17
2023-07-03T23:17:57.825Z,511.35
2023-07-03T23:20:26.508Z,395.27
2023-07-03T23:22:57.062Z,408.10
2023-07-03T23:25:24.420Z,404.58
2023-07-03T23:27:51.682Z,399.40
2023-07-03T23:30:19.168Z,407.02
2023-07-03T23:32:46.570Z,377.67
2023-07-03T23:35:13.959Z,357.88
2023-07-03T23:37:44.831Z,378.50
2023-07-03T23:40:12.435Z,443.50
2023-07-03T23:42:39.999Z,397.73
2023-07-03T23:45:09.092Z,476.42
2023-07-03T23:47:36.488Z,422.30
2023-07-03T23:50:04.566Z,381.20
2023-07-03T23:52:32.011Z,450.35
2023-07-03T23:54:59.291Z,392.40
2023-07-03T23:57:26.748Z,446.38
2023-07-03T23:59:54.090Z,384.92
